Time;durP1;ratioP1;P1;durP2;ratioP2;P2;SDS_P1;SDS_P2;PMS_P1;PMS_P2;Temp;Humidity;BMP_temperature;BMP_pressure;BME280_temperature;BME280_humidity;BME280_pressure;Samples;Min_cycle;Max_cycle;Signal;HPM_P1;HPM_P2
2021/06/25 00:00:43;;;;;;;;;;;28.20;58.90;;;;;;5133744;27;19924;-56
2021/06/25 00:03:10;;;;;;;;;;;28.20;58.90;;;;;;5131539;27;19927;-55
2021/06/25 00:05:37;;;;;;;;;;;28.20;58.90;;;;;;5133336;27;20387;-53
2021/06/25 00:08:04;;;;;;;;;;;28.20;58.80;;;;;;5132458;27;19963;-53
2021/06/25 00:10:31;;;;;;;;;;;28.20;58.80;;;;;;5114706;27;20310;-54
2021/06/25 00:12:59;;;;;;;;;;;28.20;58.80;;;;;;5132074;27;19976;-57
2021/06/25 00:15:26;;;;;;;;;;;28.20;58.80;;;;;;5132309;27;20324;-51
2021/06/25 00:17:57;;;;;;;;;;;28.20;58.80;;;;;;5131969;27;19923;-56
2021/06/25 00:20:25;;;;;;;;;;;28.20;58.80;;;;;;5116175;27;20007;-53
2021/06/25 00:22:54;;;;;;;;;;;28.20;58.80;;;;;;5131585;27;19963;-57
2021/06/25 00:25:21;;;;;;;;;;;28.20;58.70;;;;;;5117712;27;19928;-56
2021/06/25 00:27:48;;;;;;;;;;;28.20;58.70;;;;;;5118934;27;19924;-56
2021/06/25 00:30:16;;;;;;;;;;;28.20;58.70;;;;;;5111860;27;20008;-54
2021/06/25 00:32:44;;;;;;;;;;;28.20;58.70;;;;;;5133422;27;19974;-55
2021/06/25 00:35:11;;;;;;;;;;;28.10;58.60;;;;;;5132850;27;19923;-57
2021/06/25 00:37:38;;;;;;;;;;;28.10;59.20;;;;;;5115165;27;19924;-55
2021/06/25 00:40:05;;;;;;;;;;;28.20;58.70;;;;;;5132784;27;19959;-55
2021/06/25 00:42:33;;;;;;;;;;;28.10;58.60;;;;;;5131600;27;20406;-55
2021/06/25 00:45:08;;;;;;;;;;;28.10;58.60;;;;;;5132250;27;20336;-54
2021/06/25 00:47:35;;;;;;;;;;;28.10;58.50;;;;;;5131774;27;20018;-56
2021/06/25 00:50:03;;;;;;;;;;;28.10;58.50;;;;;;5130323;27;20022;-57
2021/06/25 00:52:30;;;;;;;;;;;28.10;58.50;;;;;;5131373;27;20002;-56
2021/06/25 00:54:58;;;;;;;;;;;28.10;58.50;;;;;;5134169;27;19977;-55
2021/06/25 00:57:24;;;;;;;;;;;28.10;58.50;;;;;;5132793;27;20015;-54
2021/06/25 00:59:51;;;;;;;;;;;28.20;58.50;;;;;;5131770;27;19928;-55
2021/06/25 01:02:18;;;;;;;;;;;28.10;58.50;;;;;;5129971;27;19946;-53
2021/06/25 01:04:45;;;;;;;;;;;28.10;58.50;;;;;;5130046;27;19937;-57
2021/06/25 01:07:12;;;;;;;;;;;28.10;58.40;;;;;;5132723;27;19924;-55
2021/06/25 01:09:40;;;;;;;;;;;28.10;58.50;;;;;;5132599;27;19972;-55
2021/06/25 01:12:07;;;;;;;;;;;28.10;58.40;;;;;;5132536;27;20010;-55
2021/06/25 01:14:34;;;;;;;;;;;28.10;58.40;;;;;;5133741;27;19923;-56
2021/06/25 01:17:02;;;;;;;;;;;28.10;58.40;;;;;;5131349;27;19927;-56
2021/06/25 01:19:29;;;;;;;;;;;28.10;58.40;;;;;;5133819;27;20003;-56
2021/06/25 01:21:56;;;;;;;;;;;28.10;58.40;;;;;;5133816;27;20333;-55
2021/06/25 01:24:23;;;;;;;;;;;28.10;58.40;;;;;;5132358;27;19953;-56
2021/06/25 01:26:50;;;;;;;;;;;28.10;58.40;;;;;;5102478;28;19971;-56
2021/06/25 01:29:18;;;;;;;;;;;28.10;58.40;;;;;;5125412;28;19931;-55
2021/06/25 01:31:45;;;;;;;;;;;28.10;58.40;;;;;;5119506;28;20411;-56
2021/06/25 01:34:12;;;;;;;;;;;28.10;58.40;;;;;;5125765;28;19993;-57
2021/06/25 01:36:39;;;;;;;;;;;28.10;58.40;;;;;;5135588;27;19971;-53
2021/06/25 01:39:06;;;;;;;;;;;28.10;58.40;;;;;;5135420;27;19978;-53
2021/06/25 01:41:37;;;;;;;;;;;28.10;58.40;;;;;;5135417;27;20352;-56
2021/06/25 01:44:05;;;;;;;;;;;28.10;58.40;;;;;;5134844;27;19977;-56
2021/06/25 01:46:32;;;;;;;;;;;28.10;58.40;;;;;;5106196;27;20487;-55
2021/06/25 01:49:00;;;;;;;;;;;28.10;58.30;;;;;;5132358;27;19976;-55
2021/06/25 01:51:27;;;;;;;;;;;28.10;58.30;;;;;;5104785;27;20324;-56
2021/06/25 01:53:54;;;;;;;;;;;28.10;58.30;;;;;;5133528;27;20009;-56
2021/06/25 01:56:21;;;;;;;;;;;28.10;58.30;;;;;;5136118;27;20375;-57
2021/06/25 01:58:48;;;;;;;;;;;28.10;58.30;;;;;;5115480;27;19927;-52
2021/06/25 02:01:17;;;;;;;;;;;28.10;58.20;;;;;;5134925;27;19930;-52
2021/06/25 02:03:45;;;;;;;;;;;28.10;58.80;;;;;;5116306;28;20006;-52
2021/06/25 02:06:13;;;;;;;;;;;28.10;58.20;;;;;;5134919;27;20511;-56
2021/06/25 02:08:40;;;;;;;;;;;28.10;58.20;;;;;;5134861;27;19953;-53
2021/06/25 02:11:08;;;;;;;;;;;28.10;58.20;;;;;;5119361;27;19923;-53
2021/06/25 02:13:35;;;;;;;;;;;28.10;58.20;;;;;;5135966;27;19934;-55
2021/06/25 02:16:02;;;;;;;;;;;28.10;58.10;;;;;;5119398;27;19928;-53
2021/06/25 02:18:29;;;;;;;;;;;28.10;58.10;;;;;;5133488;27;20014;-55
2021/06/25 02:20:56;;;;;;;;;;;28.10;58.10;;;;;;5133289;27;19968;-54
2021/06/25 02:23:23;;;;;;;;;;;28.10;58.10;;;;;;5133358;27;19984;-52
2021/06/25 02:25:50;;;;;;;;;;;28.10;58.10;;;;;;5133404;27;19959;-55
2021/06/25 02:28:17;;;;;;;;;;;28.10;58.10;;;;;;5118479;27;20362;-56
2021/06/25 02:30:44;;;;;;;;;;;28.10;58.10;;;;;;5133260;27;19998;-54
2021/06/25 02:33:11;;;;;;;;;;;28.10;58.10;;;;;;5135229;27;19953;-57
2021/06/25 02:35:37;;;;;;;;;;;28.10;58.10;;;;;;5134217;27;19967;-57
2021/06/25 02:38:04;;;;;;;;;;;28.10;58.00;;;;;;5116193;27;19989;-55
2021/06/25 02:40:31;;;;;;;;;;;28.00;58.00;;;;;;5136775;27;19958;-55
2021/06/25 02:42:59;;;;;;;;;;;28.10;58.00;;;;;;5133837;27;19930;-53
2021/06/25 02:45:26;;;;;;;;;;;28.10;58.00;;;;;;5129567;27;19924;-55
2021/06/25 02:47:53;;;;;;;;;;;28.00;57.90;;;;;;5132685;27;19966;-55
2021/06/25 02:50:20;;;;;;;;;;;28.00;57.90;;;;;;5133985;27;19927;-54
2021/06/25 02:52:47;;;;;;;;;;;28.00;57.80;;;;;;5134536;27;19923;-54
2021/06/25 02:55:14;;;;;;;;;;;28.00;57.80;;;;;;5135092;27;20371;-53
2021/06/25 02:57:41;;;;;;;;;;;28.10;57.90;;;;;;5134941;27;19923;-54
2021/06/25 03:00:10;;;;;;;;;;;28.10;57.90;;;;;;5136426;27;19930;-54
2021/06/25 03:02:37;;;;;;;;;;;28.00;57.80;;;;;;5117395;27;19969;-55
2021/06/25 03:05:06;;;;;;;;;;;28.10;57.80;;;;;;5134302;27;20328;-51
2021/06/25 03:07:33;;;;;;;;;;;28.00;57.70;;;;;;5117128;27;19928;-54
2021/06/25 03:10:00;;;;;;;;;;;28.00;57.70;;;;;;5115897;27;20451;-52
2021/06/25 03:12:27;;;;;;;;;;;28.00;57.60;;;;;;5133205;27;20383;-54
2021/06/25 03:14:54;;;;;;;;;;;28.00;57.60;;;;;;5118105;27;19974;-53
2021/06/25 03:17:21;;;;;;;;;;;28.00;57.50;;;;;;5118791;27;19968;-53
2021/06/25 03:19:48;;;;;;;;;;;28.00;57.50;;;;;;5116224;27;19924;-54
2021/06/25 03:22:15;;;;;;;;;;;28.00;57.50;;;;;;5131178;27;19924;-53
2021/06/25 03:24:42;;;;;;;;;;;28.00;57.40;;;;;;5124200;27;19928;-54
2021/06/25 03:27:09;;;;;;;;;;;28.00;57.40;;;;;;5121108;27;19928;-55
2021/06/25 03:29:36;;;;;;;;;;;28.00;57.40;;;;;;5128396;27;20280;-54
2021/06/25 03:32:03;;;;;;;;;;;28.00;57.40;;;;;;5133239;27;19927;-56
2021/06/25 03:34:30;;;;;;;;;;;28.10;57.40;;;;;;5132136;27;19924;-54
2021/06/25 03:36:57;;;;;;;;;;;28.10;57.30;;;;;;5131526;27;19968;-55
2021/06/25 03:39:24;;;;;;;;;;;28.00;57.30;;;;;;5131709;27;19923;-53
2021/06/25 03:41:51;;;;;;;;;;;28.10;57.30;;;;;;5133174;27;19963;-55
2021/06/25 03:44:18;;;;;;;;;;;28.10;57.20;;;;;;5130160;27;20026;-52
2021/06/25 03:46:45;;;;;;;;;;;28.10;57.20;;;;;;5117286;27;19977;-55
2021/06/25 03:49:12;;;;;;;;;;;28.10;57.20;;;;;;5131889;27;19923;-54
2021/06/25 03:51:39;;;;;;;;;;;28.10;57.20;;;;;;5131805;27;19931;-55
2021/06/25 03:54:06;;;;;;;;;;;28.10;57.10;;;;;;5132073;27;19963;-58
2021/06/25 03:56:33;;;;;;;;;;;28.10;57.10;;;;;;5132608;27;19927;-58
2021/06/25 03:59:00;;;;;;;;;;;28.10;57.00;;;;;;5132411;27;19976;-57
2021/06/25 04:01:27;;;;;;;;;;;28.10;57.00;;;;;;5133569;27;19928;-58
2021/06/25 04:03:54;;;;;;;;;;;28.10;56.90;;;;;;5099912;28;20003;-58
2021/06/25 04:06:21;;;;;;;;;;;28.10;56.90;;;;;;5118284;27;19923;-54
2021/06/25 04:08:48;;;;;;;;;;;28.10;56.90;;;;;;5131222;27;19927;-52
2021/06/25 04:11:17;;;;;;;;;;;28.10;56.90;;;;;;5133505;27;19923;-56
2021/06/25 04:13:45;;;;;;;;;;;28.10;56.90;;;;;;5118586;27;19923;-52
2021/06/25 04:16:12;;;;;;;;;;;28.10;56.80;;;;;;5116904;27;19969;-56
2021/06/25 04:18:39;;;;;;;;;;;28.10;56.80;;;;;;5129728;27;19955;-51
2021/06/25 04:21:06;;;;;;;;;;;28.10;56.70;;;;;;5132298;27;19977;-55
2021/06/25 04:23:34;;;;;;;;;;;28.10;56.70;;;;;;5130929;27;20022;-56
2021/06/25 04:26:02;;;;;;;;;;;28.10;56.70;;;;;;5134541;27;19923;-54
2021/06/25 04:28:30;;;;;;;;;;;28.10;56.70;;;;;;5130513;27;19931;-55
2021/06/25 04:30:57;;;;;;;;;;;28.10;56.60;;;;;;5131039;27;20324;-55
2021/06/25 04:33:26;;;;;;;;;;;28.10;56.60;;;;;;5132104;27;19931;-55
2021/06/25 04:35:53;;;;;;;;;;;28.10;56.50;;;;;;5134314;27;19954;-56
2021/06/25 04:38:21;;;;;;;;;;;28.10;56.50;;;;;;5131788;27;20383;-55
2021/06/25 04:40:48;;;;;;;;;;;28.10;56.50;;;;;;5116145;27;19923;-53
2021/06/25 04:43:15;;;;;;;;;;;28.10;56.50;;;;;;5131687;27;19957;-56
2021/06/25 04:45:43;;;;;;;;;;;28.10;56.50;;;;;;5123260;27;20252;-53
2021/06/25 04:48:11;;;;;;;;;;;28.10;56.40;;;;;;5131402;27;20375;-55
2021/06/25 04:50:39;;;;;;;;;;;28.10;56.40;;;;;;5132800;27;19923;-54
2021/06/25 04:53:06;;;;;;;;;;;28.10;56.40;;;;;;5116045;27;20387;-54
2021/06/25 04:55:43;;;;;;;;;;;28.10;56.40;;;;;;5133892;27;19931;-53
2021/06/25 04:58:10;;;;;;;;;;;28.10;56.30;;;;;;5114385;27;19923;-56
2021/06/25 05:00:38;;;;;;;;;;;28.20;56.30;;;;;;5115163;27;19955;-55
2021/06/25 05:03:06;;;;;;;;;;;28.10;56.20;;;;;;5133525;27;19923;-56
2021/06/25 05:05:33;;;;;;;;;;;28.20;56.20;;;;;;5116336;27;19985;-56
2021/06/25 05:08:01;;;;;;;;;;;28.20;56.10;;;;;;5130751;27;20282;-53
2021/06/25 05:10:28;;;;;;;;;;;28.20;56.10;;;;;;5114212;27;20018;-55
2021/06/25 05:12:56;;;;;;;;;;;28.20;56.00;;;;;;5113092;27;19923;-53
2021/06/25 05:15:23;;;;;;;;;;;28.20;55.90;;;;;;5132641;27;20294;-52
2021/06/25 05:17:51;;;;;;;;;;;28.20;55.90;;;;;;5132597;27;19992;-52
2021/06/25 05:20:38;;;;;;;;;;;28.20;55.80;;;;;;5131304;27;20011;-54
2021/06/25 05:23:05;;;;;;;;;;;28.20;55.70;;;;;;5129167;27;20379;-52
2021/06/25 05:25:32;;;;;;;;;;;28.30;55.70;;;;;;5130116;27;20332;-54
2021/06/25 05:27:59;;;;;;;;;;;28.30;55.60;;;;;;5115528;27;20290;-51
2021/06/25 05:30:26;;;;;;;;;;;28.30;55.60;;;;;;5131328;27;19924;-54
2021/06/25 05:32:54;;;;;;;;;;;28.30;55.50;;;;;;5129947;28;19934;-53
2021/06/25 05:35:21;;;;;;;;;;;28.30;55.50;;;;;;5130975;28;19923;-54
2021/06/25 05:37:52;;;;;;;;;;;28.30;55.40;;;;;;5131223;28;19924;-55
2021/06/25 05:40:19;;;;;;;;;;;28.30;55.40;;;;;;5129667;28;19976;-54
2021/06/25 05:42:46;;;;;;;;;;;28.30;55.40;;;;;;5132179;28;20399;-55
2021/06/25 05:45:13;;;;;;;;;;;28.30;55.40;;;;;;5130382;28;19923;-52
2021/06/25 05:47:40;;;;;;;;;;;28.30;55.40;;;;;;5128635;28;19923;-52
2021/06/25 05:50:07;;;;;;;;;;;28.30;55.40;;;;;;5119207;28;19923;-54
2021/06/25 05:52:34;;;;;;;;;;;28.30;55.40;;;;;;5131038;28;20290;-55
2021/06/25 05:55:01;;;;;;;;;;;28.30;55.30;;;;;;5128987;28;19923;-54
2021/06/25 05:57:28;;;;;;;;;;;28.30;55.20;;;;;;5114997;28;19931;-53
2021/06/25 05:59:55;;;;;;;;;;;28.30;55.20;;;;;;5133261;28;20256;-57
2021/06/25 06:02:22;;;;;;;;;;;28.40;55.20;;;;;;5132250;28;19927;-54
2021/06/25 06:04:49;;;;;;;;;;;28.40;55.10;;;;;;5132907;28;20328;-55
2021/06/25 06:07:17;;;;;;;;;;;28.40;55.00;;;;;;5114911;28;19953;-52
2021/06/25 06:09:44;;;;;;;;;;;28.40;54.90;;;;;;5131045;28;19934;-54
2021/06/25 06:12:11;;;;;;;;;;;28.40;54.80;;;;;;5131069;28;19931;-58
2021/06/25 06:14:38;;;;;;;;;;;28.40;54.80;;;;;;5129580;28;20349;-54
2021/06/25 06:17:05;;;;;;;;;;;28.40;54.80;;;;;;5130701;28;19923;-55
2021/06/25 06:19:40;;;;;;;;;;;28.40;54.70;;;;;;5129141;28;19923;-54
2021/06/25 06:33:16;;;;;;;;;;;28.60;54.40;;;;;;5136218;27;19966;-54
2021/06/25 06:35:43;;;;;;;;;;;28.60;54.20;;;;;;5118772;27;20448;-55
2021/06/25 06:38:10;;;;;;;;;;;28.60;54.20;;;;;;5136770;27;19993;-54
2021/06/25 06:40:37;;;;;;;;;;;28.50;54.20;;;;;;5136203;27;19923;-55
2021/06/25 06:43:04;;;;;;;;;;;28.50;54.20;;;;;;5117617;27;19927;-50
2021/06/25 06:45:31;;;;;;;;;;;28.50;54.20;;;;;;5133597;27;19924;-53
2021/06/25 06:47:58;;;;;;;;;;;28.50;54.10;;;;;;5119126;27;20439;-54
2021/06/25 06:50:25;;;;;;;;;;;28.50;54.10;;;;;;5132711;27;19973;-55
2021/06/25 06:52:53;;;;;;;;;;;28.50;54.00;;;;;;5136337;27;19930;-55
2021/06/25 06:55:21;;;;;;;;;;;28.50;53.90;;;;;;5132850;27;19924;-55
2021/06/25 06:57:48;;;;;;;;;;;28.50;53.90;;;;;;5124219;27;19924;-56
2021/06/25 07:00:16;;;;;;;;;;;28.50;53.80;;;;;;5129510;27;19923;-56
2021/06/25 07:02:43;;;;;;;;;;;28.50;53.80;;;;;;5126379;27;20272;-52
2021/06/25 07:05:11;;;;;;;;;;;28.50;53.80;;;;;;5118284;27;19955;-53
2021/06/25 07:07:38;;;;;;;;;;;28.50;53.80;;;;;;5124027;27;19923;-55
2021/06/25 07:10:06;;;;;;;;;;;28.50;53.70;;;;;;5133030;27;19927;-54
2021/06/25 07:12:34;;;;;;;;;;;28.50;53.70;;;;;;5134548;27;19927;-56
2021/06/25 07:15:01;;;;;;;;;;;28.50;53.70;;;;;;5134325;27;20475;-54
2021/06/25 07:17:28;;;;;;;;;;;28.50;53.70;;;;;;5134287;27;20395;-56
2021/06/25 07:19:55;;;;;;;;;;;28.50;53.60;;;;;;5133462;27;19923;-55
2021/06/25 07:22:22;;;;;;;;;;;28.60;53.70;;;;;;5133492;27;19924;-57
2021/06/25 07:24:49;;;;;;;;;;;28.50;53.60;;;;;;5131941;27;20036;-56
2021/06/25 07:27:16;;;;;;;;;;;28.50;53.60;;;;;;5134401;27;20459;-56
2021/06/25 07:29:43;;;;;;;;;;;28.50;53.60;;;;;;5132587;27;19923;-55
2021/06/25 07:32:10;;;;;;;;;;;28.50;53.60;;;;;;5115578;28;19949;-55
2021/06/25 07:34:38;;;;;;;;;;;28.50;53.60;;;;;;5132247;27;19923;-57
2021/06/25 07:37:05;;;;;;;;;;;28.50;53.60;;;;;;5117952;27;19929;-56
2021/06/25 07:39:32;;;;;;;;;;;28.50;53.60;;;;;;5116851;27;19924;-55
2021/06/25 07:42:00;;;;;;;;;;;28.60;53.60;;;;;;5134019;27;19927;-54
2021/06/25 07:44:27;;;;;;;;;;;28.60;53.50;;;;;;5128755;27;20337;-55
2021/06/25 07:46:54;;;;;;;;;;;28.60;53.50;;;;;;5132055;27;19996;-54
2021/06/25 07:49:21;;;;;;;;;;;28.60;53.40;;;;;;5132486;27;19927;-55
2021/06/25 07:51:48;;;;;;;;;;;28.60;53.40;;;;;;5131483;27;19923;-54
2021/06/25 07:54:15;;;;;;;;;;;28.60;53.30;;;;;;5131186;27;20370;-55
2021/06/25 07:56:42;;;;;;;;;;;28.60;53.20;;;;;;5131223;27;19928;-57
2021/06/25 07:59:09;;;;;;;;;;;28.70;53.20;;;;;;5104674;28;19950;-56
2021/06/25 08:01:36;;;;;;;;;;;28.70;53.10;;;;;;5126920;27;20401;-56
2021/06/25 08:04:05;;;;;;;;;;;28.70;53.00;;;;;;5131301;27;19928;-55
2021/06/25 08:06:32;;;;;;;;;;;28.70;53.00;;;;;;5125211;27;19924;-55
2021/06/25 08:09:04;;;;;;;;;;;28.70;53.40;;;;;;5118113;27;20340;-58
2021/06/25 08:11:31;;;;;;;;;;;28.80;52.80;;;;;;5124470;27;19972;-56
2021/06/25 08:13:59;;;;;;;;;;;28.80;52.60;;;;;;5132223;27;19923;-51
2021/06/25 08:16:26;;;;;;;;;;;28.90;52.60;;;;;;5134345;27;19991;-56
2021/06/25 08:18:57;;;;;;;;;;;28.90;52.40;;;;;;5113848;27;19927;-56
2021/06/25 08:21:25;;;;;;;;;;;28.90;52.20;;;;;;5133333;27;19923;-55
2021/06/25 08:23:52;;;;;;;;;;;28.90;52.10;;;;;;5132273;27;19931;-55
2021/06/25 08:26:19;;;;;;;;;;;29.00;52.00;;;;;;5131860;27;19928;-56
2021/06/25 08:28:46;;;;;;;;;;;29.00;51.90;;;;;;5116651;27;19988;-55
2021/06/25 08:31:13;;;;;;;;;;;29.10;51.80;;;;;;5132347;27;19923;-54
2021/06/25 08:33:41;;;;;;;;;;;29.10;51.70;;;;;;5134402;27;19927;-50
2021/06/25 08:36:08;;;;;;;;;;;29.10;51.70;;;;;;5132839;27;20029;-55
2021/06/25 08:38:36;;;;;;;;;;;29.10;51.60;;;;;;5133218;27;19931;-54
2021/06/25 08:41:03;;;;;;;;;;;29.10;51.50;;;;;;5133896;27;19924;-53
2021/06/25 08:43:30;;;;;;;;;;;29.10;51.40;;;;;;5131419;27;20328;-55
2021/06/25 08:46:00;;;;;;;;;;;29.20;51.30;;;;;;5111812;27;19990;-53
2021/06/25 08:48:28;;;;;;;;;;;29.20;51.10;;;;;;5131641;27;19950;-55
2021/06/25 08:50:57;;;;;;;;;;;29.20;51.10;;;;;;5130642;27;19924;-54
2021/06/25 08:53:24;;;;;;;;;;;29.30;51.00;;;;;;5119947;27;19927;-55
2021/06/25 08:55:51;;;;;;;;;;;29.30;50.90;;;;;;5114528;27;19928;-56
2021/06/25 08:58:20;;;;;;;;;;;29.30;50.80;;;;;;5115401;27;20334;-54
2021/06/25 09:00:47;;;;;;;;;;;29.30;50.80;;;;;;5114315;27;20462;-56
2021/06/25 09:03:23;;;;;;;;;;;29.30;50.80;;;;;;5115372;27;19927;-54
2021/06/25 09:05:50;;;;;;;;;;;29.40;50.70;;;;;;5125105;27;19930;-57
2021/06/25 09:08:28;;;;;;;;;;;29.40;50.70;;;;;;5122729;27;19976;-56
2021/06/25 09:10:58;;;;;;;;;;;29.40;50.60;;;;;;5124896;27;19931;-55
2021/06/25 09:13:38;;;;;;;;;;;29.40;50.50;;;;;;5122417;27;19973;-55
2021/06/25 09:16:25;;;;;;;;;;;29.40;50.40;;;;;;5126427;27;19924;-55
2021/06/25 09:19:05;;;;;;;;;;;29.50;50.50;;;;;;5130892;27;19924;-54
2021/06/25 09:21:39;;;;;;;;;;;29.50;50.40;;;;;;5120633;27;19923;-51
2021/06/25 09:24:23;;;;;;;;;;;29.50;50.40;;;;;;5128634;27;19931;-53
2021/06/25 09:26:56;;;;;;;;;;;29.50;50.40;;;;;;5130105;27;20323;-54
2021/06/25 09:29:24;;;;;;;;;;;29.40;50.40;;;;;;5110440;27;19952;-56
2021/06/25 09:31:55;;;;;;;;;;;29.40;51.00;;;;;;5130881;27;19928;-55
2021/06/25 09:34:41;;;;;;;;;;;29.40;50.50;;;;;;5119023;28;19924;-55
2021/06/25 09:37:13;;;;;;;;;;;29.40;50.60;;;;;;5129397;28;19924;-52
2021/06/25 09:39:43;;;;;;;;;;;29.40;50.60;;;;;;5129580;28;20371;-56
2021/06/25 09:42:20;;;;;;;;;;;29.40;50.50;;;;;;5129586;28;19972;-57
2021/06/25 09:44:59;;;;;;;;;;;29.40;50.40;;;;;;5123394;28;19961;-56
2021/06/25 09:47:40;;;;;;;;;;;29.40;50.40;;;;;;5112423;28;20059;-55
2021/06/25 09:50:10;;;;;;;;;;;29.50;50.40;;;;;;5132154;28;20059;-54
2021/06/25 09:52:47;;;;;;;;;;;29.50;50.30;;;;;;5130597;28;19923;-54
2021/06/25 09:55:25;;;;;;;;;;;29.50;50.20;;;;;;5114732;28;19924;-54
2021/06/25 10:03:38;;;;;;;;;;;29.50;50.10;;;;;;5122559;27;19946;-53
2021/06/25 10:06:15;;;;;;;;;;;29.60;50.10;;;;;;5119447;27;19923;-55
2021/06/25 10:08:44;;;;;;;;;;;29.50;50.10;;;;;;5117706;27;19928;-54
2021/06/25 10:11:12;;;;;;;;;;;29.50;50.00;;;;;;5117612;27;20295;-57
2021/06/25 10:13:39;;;;;;;;;;;29.60;50.00;;;;;;5136603;27;19924;-55
2021/06/25 10:16:07;;;;;;;;;;;29.60;49.90;;;;;;5135694;27;19942;-54
2021/06/25 10:18:36;;;;;;;;;;;29.60;49.80;;;;;;5134853;27;20286;-58
2021/06/25 10:21:04;;;;;;;;;;;29.60;49.70;;;;;;5135351;27;20006;-51
2021/06/25 10:23:32;;;;;;;;;;;29.60;49.60;;;;;;5134401;27;19923;-54
2021/06/25 10:26:01;;;;;;;;;;;29.70;49.60;;;;;;5133108;27;19923;-56
2021/06/25 10:28:28;;;;;;;;;;;29.70;49.60;;;;;;5135357;27;19976;-53
2021/06/25 10:30:55;;;;;;;;;;;29.70;49.50;;;;;;5133400;27;20361;-57
2021/06/25 10:33:24;;;;;;;;;;;29.70;49.40;;;;;;5124270;27;19949;-54
2021/06/25 10:35:51;;;;;;;;;;;29.70;49.40;;;;;;5130568;27;19923;-57
2021/06/25 10:38:19;;;;;;;;;;;29.60;49.40;;;;;;5136401;27;19923;-55
2021/06/25 10:40:55;;;;;;;;;;;29.60;49.40;;;;;;5107827;28;19924;-54
2021/06/25 10:43:46;;;;;;;;;;;29.60;49.50;;;;;;5127610;27;19924;-54
2021/06/25 10:46:25;;;;;;;;;;;29.60;49.50;;;;;;5129918;27;19924;-53
2021/06/25 10:48:53;;;;;;;;;;;29.60;49.50;;;;;;5133968;27;19923;-53
2021/06/25 10:51:25;;;;;;;;;;;29.60;49.50;;;;;;5136151;27;19923;-56
2021/06/25 10:54:05;;;;;;;;;;;29.60;49.60;;;;;;5133699;27;19924;-57
2021/06/25 10:56:32;;;;;;;;;;;29.60;49.70;;;;;;5134339;27;19923;-56
2021/06/25 10:59:19;;;;;;;;;;;29.50;49.60;;;;;;5136385;27;19927;-55
2021/06/25 11:01:47;;;;;;;;;;;29.50;49.70;;;;;;5136040;27;19969;-52
2021/06/25 11:04:35;;;;;;;;;;;29.50;49.80;;;;;;5132667;27;19927;-51
2021/06/25 11:07:08;;;;;;;;;;;29.50;49.80;;;;;;5134586;27;19923;-55
2021/06/25 11:09:53;;;;;;;;;;;29.50;49.70;;;;;;5131023;27;19930;-55
2021/06/25 11:12:21;;;;;;;;;;;29.50;49.70;;;;;;5133812;27;19992;-53
2021/06/25 11:14:49;;;;;;;;;;;29.50;49.60;;;;;;5134793;27;19975;-54
2021/06/25 11:17:35;;;;;;;;;;;29.50;49.50;;;;;;5115791;27;19931;-55
2021/06/25 11:20:22;;;;;;;;;;;29.50;49.40;;;;;;5132511;27;20002;-54
2021/06/25 11:22:57;;;;;;;;;;;29.60;49.50;;;;;;5134326;27;19923;-53
2021/06/25 11:25:36;;;;;;;;;;;29.60;49.50;;;;;;5134390;27;20332;-53
2021/06/25 11:28:26;;;;;;;;;;;29.60;49.50;;;;;;5133291;27;19924;-55
2021/06/25 11:30:54;;;;;;;;;;;29.60;49.50;;;;;;5117350;27;19924;-56
2021/06/25 11:33:24;;;;;;;;;;;29.60;49.50;;;;;;5116931;27;19942;-54
2021/06/25 11:35:52;;;;;;;;;;;29.50;49.40;;;;;;5133282;27;19923;-53
2021/06/25 11:38:39;;;;;;;;;;;29.50;49.50;;;;;;5115325;28;19923;-53
2021/06/25 11:41:16;;;;;;;;;;;29.50;49.50;;;;;;5116990;27;19923;-53
2021/06/25 11:44:11;;;;;;;;;;;29.50;49.60;;;;;;5117511;27;19928;-56
2021/06/25 11:46:40;;;;;;;;;;;29.50;49.60;;;;;;5118967;27;19967;-56
2021/06/25 11:49:07;;;;;;;;;;;29.50;49.60;;;;;;5131766;27;20283;-56
2021/06/25 11:51:36;;;;;;;;;;;29.50;50.30;;;;;;5132924;27;19923;-55
2021/06/25 11:54:03;;;;;;;;;;;29.50;49.60;;;;;;5132511;27;19924;-57
2021/06/25 11:56:31;;;;;;;;;;;29.50;49.50;;;;;;5134166;27;19978;-56
2021/06/25 11:58:59;;;;;;;;;;;29.50;49.40;;;;;;5116232;27;20283;-54
2021/06/25 12:01:27;;;;;;;;;;;29.50;49.50;;;;;;5135106;27;19924;-58
2021/06/25 12:04:03;;;;;;;;;;;29.60;49.40;;;;;;5132950;27;20287;-56
2021/06/25 12:06:30;;;;;;;;;;;29.60;49.30;;;;;;5133802;27;19927;-55
2021/06/25 12:09:06;;;;;;;;;;;29.60;49.20;;;;;;5132790;27;19923;-54
2021/06/25 12:11:36;;;;;;;;;;;29.60;49.20;;;;;;5115548;27;19923;-56
2021/06/25 12:14:04;;;;;;;;;;;29.60;49.20;;;;;;5132609;27;19923;-54
2021/06/25 12:16:33;;;;;;;;;;;29.70;49.30;;;;;;5134875;27;19938;-52
2021/06/25 12:19:00;;;;;;;;;;;29.70;49.20;;;;;;5133303;27;19924;-53
2021/06/25 12:21:28;;;;;;;;;;;29.70;49.20;;;;;;5132244;27;19923;-56
2021/06/25 12:23:56;;;;;;;;;;;29.70;49.20;;;;;;5133807;27;19923;-53
2021/06/25 12:26:25;;;;;;;;;;;29.70;49.20;;;;;;5118726;27;20370;-55
2021/06/25 12:28:53;;;;;;;;;;;29.70;49.20;;;;;;5132037;27;19953;-54
2021/06/25 12:31:23;;;;;;;;;;;29.60;49.10;;;;;;5115849;27;20344;-55
2021/06/25 12:34:02;;;;;;;;;;;29.60;49.10;;;;;;5133312;27;20006;-55
2021/06/25 12:36:31;;;;;;;;;;;29.70;49.10;;;;;;5120538;27;20429;-57
2021/06/25 12:39:00;;;;;;;;;;;29.60;49.10;;;;;;5115993;27;19931;-55
2021/06/25 12:41:27;;;;;;;;;;;29.60;49.20;;;;;;5127010;27;19935;-51
2021/06/25 12:43:56;;;;;;;;;;;29.60;49.30;;;;;;5123503;27;20022;-56
2021/06/25 12:46:23;;;;;;;;;;;29.50;49.30;;;;;;5122794;27;19928;-55
2021/06/25 12:48:55;;;;;;;;;;;29.50;49.40;;;;;;5123523;27;19928;-54
2021/06/25 12:51:23;;;;;;;;;;;29.50;49.50;;;;;;5121307;27;20329;-55
2021/06/25 12:53:55;;;;;;;;;;;29.40;49.50;;;;;;5129466;27;19930;-56
2021/06/25 12:56:23;;;;;;;;;;;29.50;49.60;;;;;;5132160;27;19923;-53
2021/06/25 12:59:02;;;;;;;;;;;29.50;49.60;;;;;;5130843;27;20206;-54
2021/06/25 13:01:45;;;;;;;;;;;29.50;49.60;;;;;;5133084;27;20055;-56
2021/06/25 13:04:21;;;;;;;;;;;29.50;49.40;;;;;;5132624;27;19931;-58
2021/06/25 13:06:50;;;;;;;;;;;29.50;49.40;;;;;;5131445;27;19923;-58
2021/06/25 13:09:21;;;;;;;;;;;29.50;49.40;;;;;;5133033;27;19984;-52
2021/06/25 13:11:50;;;;;;;;;;;29.60;49.40;;;;;;5130053;27;19930;-55
2021/06/25 13:14:30;;;;;;;;;;;29.60;49.30;;;;;;5132218;27;19969;-53
2021/06/25 13:16:59;;;;;;;;;;;29.60;49.30;;;;;;5131282;27;19923;-56
2021/06/25 13:19:28;;;;;;;;;;;29.60;49.10;;;;;;5132371;27;19938;-57
2021/06/25 13:22:03;;;;;;;;;;;29.60;49.10;;;;;;5127205;27;19935;-55
2021/06/25 13:24:43;;;;;;;;;;;29.60;49.70;;;;;;5114481;27;19969;-57
2021/06/25 13:27:13;;;;;;;;;;;29.50;49.00;;;;;;5099519;28;19924;-56
2021/06/25 13:29:44;;;;;;;;;;;29.50;48.90;;;;;;5121418;27;19927;-55
2021/06/25 13:32:12;;;;;;;;;;;29.50;48.90;;;;;;5130812;27;20271;-55
2021/06/25 13:34:50;;;;;;;;;;;29.50;48.90;;;;;;5130079;28;19927;-52
2021/06/25 13:37:17;;;;;;;;;;;29.50;49.00;;;;;;5131013;28;19923;-57
2021/06/25 13:39:52;;;;;;;;;;;29.40;49.00;;;;;;5132518;28;19929;-56
2021/06/25 13:42:19;;;;;;;;;;;29.40;49.10;;;;;;5129859;28;19988;-56
2021/06/25 13:44:46;;;;;;;;;;;29.40;49.10;;;;;;5130193;28;19927;-56
2021/06/25 13:47:14;;;;;;;;;;;29.40;49.20;;;;;;5112687;28;20332;-57
2021/06/25 13:49:53;;;;;;;;;;;29.40;49.10;;;;;;5130060;28;19931;-57
2021/06/25 13:52:27;;;;;;;;;;;29.30;49.10;;;;;;5130848;28;20387;-55
2021/06/25 13:55:12;;;;;;;;;;;29.30;49.10;;;;;;5092370;28;19927;-53
2021/06/25 13:58:02;;;;;;;;;;;29.30;49.20;;;;;;5090151;28;19924;-55
2021/06/25 14:00:30;;;;;;;;;;;29.30;49.30;;;;;;5088706;28;20372;-55
2021/06/25 14:02:59;;;;;;;;;;;29.30;49.30;;;;;;5089870;28;20345;-56
2021/06/25 14:05:26;;;;;;;;;;;29.30;49.30;;;;;;5089766;28;19932;-55
2021/06/25 14:07:56;;;;;;;;;;;29.30;49.30;;;;;;5090045;28;19931;-55
2021/06/25 14:10:23;;;;;;;;;;;29.30;49.30;;;;;;5089669;28;19924;-55
2021/06/25 14:12:50;;;;;;;;;;;29.30;49.30;;;;;;5092133;28;19932;-53
2021/06/25 14:15:18;;;;;;;;;;;29.30;49.40;;;;;;5089936;28;19931;-56
2021/06/25 14:17:55;;;;;;;;;;;29.30;49.30;;;;;;5091072;28;19924;-55
2021/06/25 14:20:22;;;;;;;;;;;29.30;49.30;;;;;;5091394;28;20343;-52
2021/06/25 14:22:49;;;;;;;;;;;29.40;49.30;;;;;;5090598;28;19973;-54
2021/06/25 14:25:16;;;;;;;;;;;29.40;49.30;;;;;;5074291;28;19924;-56
2021/06/25 14:27:44;;;;;;;;;;;29.40;49.30;;;;;;5079189;28;20326;-53
2021/06/25 14:30:11;;;;;;;;;;;29.40;49.30;;;;;;5072924;28;19970;-54
2021/06/25 14:32:39;;;;;;;;;;;29.40;49.30;;;;;;5074792;28;19928;-54
2021/06/25 14:35:06;;;;;;;;;;;29.40;49.30;;;;;;5089894;28;20260;-57
2021/06/25 14:37:33;;;;;;;;;;;29.50;49.30;;;;;;5088560;28;19952;-53
2021/06/25 14:40:00;;;;;;;;;;;29.50;49.30;;;;;;5089613;28;19924;-52
2021/06/25 14:42:28;;;;;;;;;;;29.50;49.30;;;;;;5077280;28;19924;-56
2021/06/25 14:44:54;;;;;;;;;;;29.50;49.20;;;;;;5089780;28;20360;-54